sensor_id;sensor_type;location;lat;lon;timestamp;pressure;altitude;pressure_sealevel;temperature;humidity
64602;BME280;51013;42.630;23.192;2023-01-19T00:00:18;91223.56;;;10.98;62.48
64602;BME280;51013;42.630;23.192;2023-01-19T00:02:47;91249.19;;;11.12;61.92
64602;BME280;51013;42.630;23.192;2023-01-19T00:05:15;91261.59;;;11.12;62.02
64602;BME280;51013;42.630;23.192;2023-01-19T00:07:44;91265.38;;;11.18;61.73
64602;BME280;51013;42.630;23.192;2023-01-19T00:10:13;91264.66;;;11.21;62.29
64602;BME280;51013;42.630;23.192;2023-01-19T00:12:41;91274.38;;;11.17;62.09
64602;BME280;51013;42.630;23.192;2023-01-19T00:15:09;91279.31;;;11.22;61.94
64602;BME280;51013;42.630;23.192;2023-01-19T00:17:35;91274.00;;;11.15;62.42
64602;BME280;51013;42.630;23.192;2023-01-19T00:20:06;91235.25;;;11.01;61.66
64602;BME280;51013;42.630;23.192;2023-01-19T00:22:33;91262.69;;;11.11;62.55
64602;BME280;51013;42.630;23.192;2023-01-19T00:25:00;91260.13;;;11.18;61.66
64602;BME280;51013;42.630;23.192;2023-01-19T00:27:27;91228.88;;;11.06;61.16
64602;BME280;51013;42.630;23.192;2023-01-19T00:30:00;91253.03;;;11.22;60.41
64602;BME280;51013;42.630;23.192;2023-01-19T00:32:27;91263.94;;;11.28;60.19
64602;BME280;51013;42.630;23.192;2023-01-19T00:34:54;91270.34;;;11.30;59.78
64602;BME280;51013;42.630;23.192;2023-01-19T00:37:20;91288.38;;;11.28;59.42
64602;BME280;51013;42.630;23.192;2023-01-19T00:39:49;91251.16;;;11.26;59.53
64602;BME280;51013;42.630;23.192;2023-01-19T00:42:16;91272.56;;;11.25;59.58
64602;BME280;51013;42.630;23.192;2023-01-19T00:45:01;91260.56;;;11.31;58.71
64602;BME280;51013;42.630;23.192;2023-01-19T00:47:28;91261.72;;;11.30;58.75
64602;BME280;51013;42.630;23.192;2023-01-19T00:49:56;91228.31;;;11.34;57.81
64602;BME280;51013;42.630;23.192;2023-01-19T00:52:23;91255.72;;;11.36;58.41
64602;BME280;51013;42.630;23.192;2023-01-19T00:54:50;91275.28;;;11.39;57.62
64602;BME280;51013;42.630;23.192;2023-01-19T00:57:16;91248.22;;;11.35;57.92
64602;BME280;51013;42.630;23.192;2023-01-19T00:59:45;91256.50;;;11.40;57.71
64602;BME280;51013;42.630;23.192;2023-01-19T01:02:13;91264.00;;;11.38;57.76
64602;BME280;51013;42.630;23.192;2023-01-19T01:04:40;91284.66;;;11.36;57.86
64602;BME280;51013;42.630;23.192;2023-01-19T01:07:07;91268.53;;;11.38;57.74
64602;BME280;51013;42.630;23.192;2023-01-19T01:09:34;91257.22;;;11.34;57.64
64602;BME280;51013;42.630;23.192;2023-01-19T01:12:00;91241.38;;;11.19;57.32
64602;BME280;51013;42.630;23.192;2023-01-19T01:14:27;91258.69;;;11.31;57.66
64602;BME280;51013;42.630;23.192;2023-01-19T01:16:54;91243.22;;;11.19;57.41
64602;BME280;51013;42.630;23.192;2023-01-19T01:19:22;91244.47;;;11.36;57.35
64602;BME280;51013;42.630;23.192;2023-01-19T01:21:51;91263.63;;;11.36;57.19
64602;BME280;51013;42.630;23.192;2023-01-19T01:24:18;91248.56;;;11.33;57.90
64602;BME280;51013;42.630;23.192;2023-01-19T01:26:46;91276.06;;;11.39;57.12
64602;BME280;51013;42.630;23.192;2023-01-19T01:29:13;91258.78;;;11.42;56.39
64602;BME280;51013;42.630;23.192;2023-01-19T01:31:40;91270.75;;;11.36;57.42
64602;BME280;51013;42.630;23.192;2023-01-19T01:34:06;91265.91;;;11.45;56.66
64602;BME280;51013;42.630;23.192;2023-01-19T01:36:35;91250.88;;;11.42;56.69
64602;BME280;51013;42.630;23.192;2023-01-19T01:39:02;91264.06;;;11.46;56.17
64602;BME280;51013;42.630;23.192;2023-01-19T01:41:29;91250.41;;;11.29;56.85
64602;BME280;51013;42.630;23.192;2023-01-19T01:43:57;91227.53;;;11.30;56.52
64602;BME280;51013;42.630;23.192;2023-01-19T01:46:28;91278.34;;;11.48;56.24
64602;BME280;51013;42.630;23.192;2023-01-19T01:49:00;91233.56;;;11.34;55.99
64602;BME280;51013;42.630;23.192;2023-01-19T01:51:35;91264.44;;;11.48;55.99
64602;BME280;51013;42.630;23.192;2023-01-19T01:54:10;91263.75;;;11.58;55.34
64602;BME280;51013;42.630;23.192;2023-01-19T01:56:41;91275.00;;;11.55;55.50
64602;BME280;51013;42.630;23.192;2023-01-19T01:59:11;91268.22;;;11.50;55.41
64602;BME280;51013;42.630;23.192;2023-01-19T02:01:50;91270.84;;;11.50;54.87
64602;BME280;51013;42.630;23.192;2023-01-19T02:04:36;91278.38;;;11.55;55.61
64602;BME280;51013;42.630;23.192;2023-01-19T02:07:04;91244.53;;;11.47;55.13
64602;BME280;51013;42.630;23.192;2023-01-19T02:09:48;91261.06;;;11.51;55.37
64602;BME280;51013;42.630;23.192;2023-01-19T02:12:34;91252.81;;;11.52;55.11
64602;BME280;51013;42.630;23.192;2023-01-19T02:15:19;91252.00;;;11.41;55.65
64602;BME280;51013;42.630;23.192;2023-01-19T02:17:46;91215.53;;;11.32;55.13
64602;BME280;51013;42.630;23.192;2023-01-19T02:20:14;91252.81;;;11.52;54.70
64602;BME280;51013;42.630;23.192;2023-01-19T02:22:46;91247.56;;;11.52;54.50
64602;BME280;51013;42.630;23.192;2023-01-19T02:25:16;91247.97;;;11.61;54.10
64602;BME280;51013;42.630;23.192;2023-01-19T02:27:43;91232.56;;;11.56;54.19
64602;BME280;51013;42.630;23.192;2023-01-19T02:30:12;91257.38;;;11.62;53.99
64602;BME280;51013;42.630;23.192;2023-01-19T02:32:41;91243.88;;;11.64;54.42
64602;BME280;51013;42.630;23.192;2023-01-19T02:35:09;91220.56;;;11.70;53.57
64602;BME280;51013;42.630;23.192;2023-01-19T02:37:37;91245.38;;;11.69;53.99
64602;BME280;51013;42.630;23.192;2023-01-19T02:40:07;91207.69;;;11.47;53.97
64602;BME280;51013;42.630;23.192;2023-01-19T02:42:40;91198.31;;;11.49;53.73
64602;BME280;51013;42.630;23.192;2023-01-19T02:45:10;91239.75;;;11.70;53.92
64602;BME280;51013;42.630;23.192;2023-01-19T02:47:40;91211.13;;;11.61;53.31
64602;BME280;51013;42.630;23.192;2023-01-19T02:50:40;91226.97;;;11.69;53.42
64602;BME280;51013;42.630;23.192;2023-01-19T02:53:32;91233.72;;;11.70;53.57
64602;BME280;51013;42.630;23.192;2023-01-19T02:56:11;91246.09;;;11.66;53.00
64602;BME280;51013;42.630;23.192;2023-01-19T02:58:50;91219.06;;;11.69;52.88
64602;BME280;51013;42.630;23.192;2023-01-19T03:01:26;91225.06;;;11.66;52.88
64602;BME280;51013;42.630;23.192;2023-01-19T03:04:03;91230.34;;;11.69;52.09
64602;BME280;51013;42.630;23.192;2023-01-19T03:06:42;91186.31;;;11.52;52.75
64602;BME280;51013;42.630;23.192;2023-01-19T03:09:12;91236.34;;;11.66;52.18
64602;BME280;51013;42.630;23.192;2023-01-19T03:11:45;91276.94;;;11.69;51.89
64602;BME280;51013;42.630;23.192;2023-01-19T03:14:20;91240.13;;;11.72;51.83
64602;BME280;51013;42.630;23.192;2023-01-19T03:16:51;91210.78;;;11.63;52.38
64602;BME280;51013;42.630;23.192;2023-01-19T03:19:22;91225.09;;;11.69;52.58
64602;BME280;51013;42.630;23.192;2023-01-19T03:21:56;91216.03;;;11.63;51.61
64602;BME280;51013;42.630;23.192;2023-01-19T03:24:25;91217.22;;;11.73;51.50
64602;BME280;51013;42.630;23.192;2023-01-19T03:26:58;91212.69;;;11.70;51.76
64602;BME280;51013;42.630;23.192;2023-01-19T03:29:31;91228.47;;;11.66;51.83
64602;BME280;51013;42.630;23.192;2023-01-19T03:32:04;91200.59;;;11.51;51.52
64602;BME280;51013;42.630;23.192;2023-01-19T03:34:33;91215.69;;;11.72;51.33
64602;BME280;51013;42.630;23.192;2023-01-19T03:37:02;91237.09;;;11.67;52.18
64602;BME280;51013;42.630;23.192;2023-01-19T03:39:30;91220.19;;;11.68;51.89
64602;BME280;51013;42.630;23.192;2023-01-19T03:42:01;91224.31;;;11.65;52.00
64602;BME280;51013;42.630;23.192;2023-01-19T03:44:31;91212.63;;;11.59;51.92
64602;BME280;51013;42.630;23.192;2023-01-19T03:46:59;91227.69;;;11.62;51.96
64602;BME280;51013;42.630;23.192;2023-01-19T03:49:29;91233.28;;;11.57;51.44
64602;BME280;51013;42.630;23.192;2023-01-19T03:51:59;91222.81;;;11.60;51.92
64602;BME280;51013;42.630;23.192;2023-01-19T03:54:26;91202.50;;;11.54;51.97
64602;BME280;51013;42.630;23.192;2023-01-19T03:56:55;91225.03;;;11.58;51.37
64602;BME280;51013;42.630;23.192;2023-01-19T03:59:22;91213.00;;;11.57;51.45
64602;BME280;51013;42.630;23.192;2023-01-19T04:01:50;91237.84;;;11.60;51.05
64602;BME280;51013;42.630;23.192;2023-01-19T04:04:17;91195.22;;;11.33;51.56
64602;BME280;51013;42.630;23.192;2023-01-19T04:06:44;91213.31;;;11.38;51.02
64602;BME280;51013;42.630;23.192;2023-01-19T04:09:10;91249.47;;;11.59;51.54
64602;BME280;51013;42.630;23.192;2023-01-19T04:11:37;91230.72;;;11.64;50.34
64602;BME280;51013;42.630;23.192;2023-01-19T04:14:04;91207.03;;;11.68;50.41
64602;BME280;51013;42.630;23.192;2023-01-19T04:16:31;91224.28;;;11.61;50.34
64602;BME280;51013;42.630;23.192;2023-01-19T04:19:02;91195.75;;;11.63;50.51
64602;BME280;51013;42.630;23.192;2023-01-19T04:21:30;91213.78;;;11.61;50.13
64602;BME280;51013;42.630;23.192;2023-01-19T04:23:57;91204.78;;;11.70;49.72
64602;BME280;51013;42.630;23.192;2023-01-19T04:26:25;91220.94;;;11.72;49.63
64602;BME280;51013;42.630;23.192;2023-01-19T04:28:52;91224.34;;;11.72;49.86
64602;BME280;51013;42.630;23.192;2023-01-19T04:31:19;91180.41;;;11.76;49.93
64602;BME280;51013;42.630;23.192;2023-01-19T04:33:47;91201.06;;;11.78;49.07
64602;BME280;51013;42.630;23.192;2023-01-19T04:36:16;91220.59;;;11.77;49.26
64602;BME280;51013;42.630;23.192;2023-01-19T04:38:42;91207.84;;;11.79;49.54
64602;BME280;51013;42.630;23.192;2023-01-19T04:41:11;91194.25;;;11.70;49.26
64602;BME280;51013;42.630;23.192;2023-01-19T04:43:37;91187.84;;;11.63;48.87
64602;BME280;51013;42.630;23.192;2023-01-19T04:46:04;91133.22;;;11.25;49.23
64602;BME280;51013;42.630;23.192;2023-01-19T04:48:31;91214.59;;;11.73;49.44
64602;BME280;51013;42.630;23.192;2023-01-19T04:50:58;91204.44;;;11.75;48.98
64602;BME280;51013;42.630;23.192;2023-01-19T04:53:28;91214.59;;;11.76;49.25
64602;BME280;51013;42.630;23.192;2023-01-19T04:55:55;91219.09;;;11.72;49.52
64602;BME280;51013;42.630;23.192;2023-01-19T04:58:24;91229.63;;;11.79;49.83
64602;BME280;51013;42.630;23.192;2023-01-19T05:00:50;91263.06;;;11.75;49.58
64602;BME280;51013;42.630;23.192;2023-01-19T05:03:17;91198.38;;;11.60;49.11
64602;BME280;51013;42.630;23.192;2023-01-19T05:05:45;91202.53;;;11.65;49.98
64602;BME280;51013;42.630;23.192;2023-01-19T05:08:12;91243.16;;;11.78;49.02
64602;BME280;51013;42.630;23.192;2023-01-19T05:10:40;91255.53;;;11.74;49.77
64602;BME280;51013;42.630;23.192;2023-01-19T05:13:07;91276.59;;;11.74;50.54
64602;BME280;51013;42.630;23.192;2023-01-19T05:15:33;91248.78;;;11.80;49.39
64602;BME280;51013;42.630;23.192;2023-01-19T05:18:00;91239.69;;;11.59;50.09
64602;BME280;51013;42.630;23.192;2023-01-19T05:20:28;91266.78;;;11.67;51.11
64602;BME280;51013;42.630;23.192;2023-01-19T05:22:55;91246.50;;;11.64;50.27
64602;BME280;51013;42.630;23.192;2023-01-19T05:25:22;91241.19;;;11.57;51.00
64602;BME280;51013;42.630;23.192;2023-01-19T05:27:50;91224.56;;;11.38;50.94
64602;BME280;51013;42.630;23.192;2023-01-19T05:30:17;91253.16;;;11.43;50.77
64602;BME280;51013;42.630;23.192;2023-01-19T05:32:44;91259.59;;;11.57;51.28
64602;BME280;51013;42.630;23.192;2023-01-19T05:35:11;91261.47;;;11.53;51.33
64602;BME280;51013;42.630;23.192;2023-01-19T05:37:39;91235.16;;;11.53;50.80
64602;BME280;51013;42.630;23.192;2023-01-19T05:40:07;91261.88;;;11.58;50.36
64602;BME280;51013;42.630;23.192;2023-01-19T05:42:35;91275.78;;;11.62;50.50
64602;BME280;51013;42.630;23.192;2023-01-19T05:45:05;91268.63;;;11.59;50.52
64602;BME280;51013;42.630;23.192;2023-01-19T05:47:32;91291.91;;;11.54;51.29
64602;BME280;51013;42.630;23.192;2023-01-19T05:50:00;91291.53;;;11.59;50.46
64602;BME280;51013;42.630;23.192;2023-01-19T05:52:27;91252.41;;;11.47;51.03
64602;BME280;51013;42.630;23.192;2023-01-19T05:54:54;91285.13;;;11.53;50.76
64602;BME280;51013;42.630;23.192;2023-01-19T05:57:21;91278.72;;;11.50;51.27
64602;BME280;51013;42.630;23.192;2023-01-19T05:59:48;91314.44;;;11.55;51.50
64602;BME280;51013;42.630;23.192;2023-01-19T06:02:16;91336.53;;;11.43;51.86
64602;BME280;51013;42.630;23.192;2023-01-19T06:04:43;91311.41;;;11.49;51.62
64602;BME280;51013;42.630;23.192;2023-01-19T06:07:10;91304.56;;;11.37;52.88
64602;BME280;51013;42.630;23.192;2023-01-19T06:09:37;91319.19;;;11.35;53.27
64602;BME280;51013;42.630;23.192;2023-01-19T06:12:07;91275.75;;;10.96;53.19
64602;BME280;51013;42.630;23.192;2023-01-19T06:14:35;91335.72;;;11.32;53.53
64602;BME280;51013;42.630;23.192;2023-01-19T06:17:02;91330.47;;;11.32;53.48
64602;BME280;51013;42.630;23.192;2023-01-19T06:19:32;91341.34;;;11.30;53.60
64602;BME280;51013;42.630;23.192;2023-01-19T06:22:02;91343.53;;;11.25;54.08
64602;BME280;51013;42.630;23.192;2023-01-19T06:24:29;91344.28;;;11.25;54.59
64602;BME280;51013;42.630;23.192;2023-01-19T06:26:55;91342.75;;;11.20;54.67
64602;BME280;51013;42.630;23.192;2023-01-19T06:29:22;91363.34;;;11.11;55.15
64602;BME280;51013;42.630;23.192;2023-01-19T06:31:49;91370.56;;;11.21;54.37
64602;BME280;51013;42.630;23.192;2023-01-19T06:34:16;91347.25;;;11.20;53.94
64602;BME280;51013;42.630;23.192;2023-01-19T06:36:45;91354.09;;;11.28;54.25
64602;BME280;51013;42.630;23.192;2023-01-19T06:39:12;91362.00;;;11.32;53.88
64602;BME280;51013;42.630;23.192;2023-01-19T06:41:39;91346.19;;;11.28;54.02
64602;BME280;51013;42.630;23.192;2023-01-19T06:44:07;91371.34;;;11.26;55.03
64602;BME280;51013;42.630;23.192;2023-01-19T06:46:34;91372.09;;;11.26;55.12
64602;BME280;51013;42.630;23.192;2023-01-19T06:49:02;91372.06;;;11.22;55.25
64602;BME280;51013;42.630;23.192;2023-01-19T06:51:29;91382.53;;;11.15;55.03
64602;BME280;51013;42.630;23.192;2023-01-19T06:53:57;91374.34;;;11.24;54.29
64602;BME280;51013;42.630;23.192;2023-01-19T06:56:24;91346.06;;;11.10;55.20
64602;BME280;51013;42.630;23.192;2023-01-19T06:58:51;91383.72;;;11.25;54.50
64602;BME280;51013;42.630;23.192;2023-01-19T07:01:19;91378.88;;;11.31;54.80
64602;BME280;51013;42.630;23.192;2023-01-19T07:03:46;91380.34;;;11.25;53.78
64602;BME280;51013;42.630;23.192;2023-01-19T07:06:13;91382.66;;;11.30;53.87
64602;BME280;51013;42.630;23.192;2023-01-19T07:08:40;91377.00;;;11.31;53.74
64602;BME280;51013;42.630;23.192;2023-01-19T07:11:10;91378.19;;;11.37;53.81
64602;BME280;51013;42.630;23.192;2023-01-19T07:13:39;91366.50;;;11.31;52.98
64602;BME280;51013;42.630;23.192;2023-01-19T07:16:09;91383.16;;;11.46;52.81
64602;BME280;51013;42.630;23.192;2023-01-19T07:18:36;91402.03;;;11.59;51.69
64602;BME280;51013;42.630;23.192;2023-01-19T07:21:06;91403.56;;;11.63;51.84
64602;BME280;51013;42.630;23.192;2023-01-19T07:23:34;91393.03;;;11.60;51.45
64602;BME280;51013;42.630;23.192;2023-01-19T07:26:02;91382.16;;;11.65;51.13
64602;BME280;51013;42.630;23.192;2023-01-19T07:28:30;91353.50;;;11.53;51.07
64602;BME280;51013;42.630;23.192;2023-01-19T07:30:57;91387.16;;;11.85;50.79
64602;BME280;51013;42.630;23.192;2023-01-19T07:33:24;91385.63;;;11.76;51.87
64602;BME280;51013;42.630;23.192;2023-01-19T07:35:51;91391.38;;;11.93;50.95
64602;BME280;51013;42.630;23.192;2023-01-19T07:38:19;91363.78;;;11.76;50.55
64602;BME280;51013;42.630;23.192;2023-01-19T07:40:46;91373.72;;;11.97;50.26
64602;BME280;51013;42.630;23.192;2023-01-19T07:43:13;91351.78;;;11.75;50.36
64602;BME280;51013;42.630;23.192;2023-01-19T07:45:42;91354.94;;;11.95;50.13
64602;BME280;51013;42.630;23.192;2023-01-19T07:48:12;91381.72;;;12.15;49.45
64602;BME280;51013;42.630;23.192;2023-01-19T07:50:40;91373.88;;;12.26;49.85
64602;BME280;51013;42.630;23.192;2023-01-19T07:53:08;91361.09;;;12.28;50.23
64602;BME280;51013;42.630;23.192;2023-01-19T07:55:36;91379.56;;;12.35;50.26
64602;BME280;51013;42.630;23.192;2023-01-19T07:58:03;91380.72;;;12.45;48.78
64602;BME280;51013;42.630;23.192;2023-01-19T08:00:32;91347.19;;;12.31;49.05
64602;BME280;51013;42.630;23.192;2023-01-19T08:03:01;91374.00;;;12.61;47.46
64602;BME280;51013;42.630;23.192;2023-01-19T08:05:28;91392.50;;;12.83;45.99
64602;BME280;51013;42.630;23.192;2023-01-19T08:07:56;91417.75;;;12.88;45.28
64602;BME280;51013;42.630;23.192;2023-01-19T08:10:23;91364.28;;;12.80;45.63
64602;BME280;51013;42.630;23.192;2023-01-19T08:12:51;91414.41;;;13.09;45.85
64602;BME280;51013;42.630;23.192;2023-01-19T08:15:20;91394.06;;;13.06;45.02
64602;BME280;51013;42.630;23.192;2023-01-19T08:17:54;91357.16;;;12.98;45.44
64602;BME280;51013;42.630;23.192;2023-01-19T08:20:23;91390.66;;;13.01;45.04
64602;BME280;51013;42.630;23.192;2023-01-19T08:22:50;91379.38;;;13.01;45.10
64602;BME280;51013;42.630;23.192;2023-01-19T08:25:24;91401.22;;;12.98;45.29
64602;BME280;51013;42.630;23.192;2023-01-19T08:27:54;91396.69;;;13.09;44.95
64602;BME280;51013;42.630;23.192;2023-01-19T08:30:21;91392.94;;;13.03;44.92
64602;BME280;51013;42.630;23.192;2023-01-19T08:32:51;91389.56;;;13.17;44.62
64602;BME280;51013;42.630;23.192;2023-01-19T08:35:18;91380.53;;;13.21;43.90
64602;BME280;51013;42.630;23.192;2023-01-19T08:37:48;91405.78;;;13.26;44.29
64602;BME280;51013;42.630;23.192;2023-01-19T08:40:15;91407.31;;;13.31;43.80
64602;BME280;51013;42.630;23.192;2023-01-19T08:42:42;91403.53;;;13.35;44.80
64602;BME280;51013;42.630;23.192;2023-01-19T08:45:11;91401.66;;;13.50;43.85
64602;BME280;51013;42.630;23.192;2023-01-19T08:47:38;91403.16;;;13.48;43.19
64602;BME280;51013;42.630;23.192;2023-01-19T08:50:07;91406.19;;;13.46;44.71
64602;BME280;51013;42.630;23.192;2023-01-19T08:52:36;91416.75;;;13.42;42.84
64602;BME280;51013;42.630;23.192;2023-01-19T08:55:05;91414.13;;;13.53;43.53
64602;BME280;51013;42.630;23.192;2023-01-19T08:57:33;91402.41;;;13.54;43.43
64602;BME280;51013;42.630;23.192;2023-01-19T08:59:59;91417.88;;;13.59;43.50
64602;BME280;51013;42.630;23.192;2023-01-19T09:02:26;91419.78;;;13.62;43.85
64602;BME280;51013;42.630;23.192;2023-01-19T09:04:53;91398.66;;;13.70;42.85
64602;BME280;51013;42.630;23.192;2023-01-19T09:07:20;91398.28;;;13.71;42.58
64602;BME280;51013;42.630;23.192;2023-01-19T09:09:47;91403.91;;;13.88;42.73
64602;BME280;51013;42.630;23.192;2023-01-19T09:12:15;91364.34;;;13.73;43.17
64602;BME280;51013;42.630;23.192;2023-01-19T09:14:42;91385.03;;;14.03;43.51
64602;BME280;51013;42.630;23.192;2023-01-19T09:17:09;91398.25;;;14.07;42.71
64602;BME280;51013;42.630;23.192;2023-01-19T09:19:39;91407.63;;;14.19;43.31
64602;BME280;51013;42.630;23.192;2023-01-19T09:22:08;91376.31;;;14.25;41.59
64602;BME280;51013;42.630;23.192;2023-01-19T09:24:34;91380.81;;;14.31;41.92
64602;BME280;51013;42.630;23.192;2023-01-19T09:27:01;91353.72;;;14.09;41.75
64602;BME280;51013;42.630;23.192;2023-01-19T09:29:30;91401.56;;;14.29;42.54
64602;BME280;51013;42.630;23.192;2023-01-19T09:31:56;91384.19;;;14.42;42.07
64602;BME280;51013;42.630;23.192;2023-01-19T09:34:23;91375.50;;;14.35;41.09
64602;BME280;51013;42.630;23.192;2023-01-19T09:36:50;91384.97;;;14.32;41.69
64602;BME280;51013;42.630;23.192;2023-01-19T09:39:17;91410.22;;;14.40;41.85
64602;BME280;51013;42.630;23.192;2023-01-19T09:41:48;91372.50;;;14.33;42.28
64602;BME280;51013;42.630;23.192;2023-01-19T09:44:21;91377.78;;;14.29;42.27
64602;BME280;51013;42.630;23.192;2023-01-19T09:46:54;91381.91;;;14.41;41.79
64602;BME280;51013;42.630;23.192;2023-01-19T09:49:27;91361.88;;;14.47;41.59
64602;BME280;51013;42.630;23.192;2023-01-19T09:51:57;91359.59;;;14.53;42.12
64602;BME280;51013;42.630;23.192;2023-01-19T09:54:29;91372.84;;;14.56;41.25
64602;BME280;51013;42.630;23.192;2023-01-19T09:57:00;91337.66;;;14.67;42.61
64602;BME280;51013;42.630;23.192;2023-01-19T09:59:28;91272.53;;;14.24;41.70
64602;BME280;51013;42.630;23.192;2023-01-19T10:02:05;91307.50;;;14.57;43.46
64602;BME280;51013;42.630;23.192;2023-01-19T10:04:36;91334.97;;;14.74;41.46
64602;BME280;51013;42.630;23.192;2023-01-19T10:07:17;91350.44;;;14.79;42.74
64602;BME280;51013;42.630;23.192;2023-01-19T10:09:56;91348.56;;;14.76;41.83
64602;BME280;51013;42.630;23.192;2023-01-19T10:12:42;91334.66;;;14.68;42.28
64602;BME280;51013;42.630;23.192;2023-01-19T10:15:19;91323.31;;;14.68;43.05
64602;BME280;51013;42.630;23.192;2023-01-19T10:18:01;91316.50;;;14.70;40.64
64602;BME280;51013;42.630;23.192;2023-01-19T10:20:33;91310.72;;;14.86;42.47
64602;BME280;51013;42.630;23.192;2023-01-19T10:23:03;91311.53;;;14.83;40.14
64602;BME280;51013;42.630;23.192;2023-01-19T10:25:32;91313.41;;;14.82;40.38
64602;BME280;51013;42.630;23.192;2023-01-19T10:27:59;91327.28;;;15.01;40.30
64602;BME280;51013;42.630;23.192;2023-01-19T10:30:27;91310.59;;;15.08;39.69
64602;BME280;51013;42.630;23.192;2023-01-19T10:32:56;91309.03;;;15.17;40.75
64602;BME280;51013;42.630;23.192;2023-01-19T10:35:23;91290.50;;;15.17;39.08
64602;BME280;51013;42.630;23.192;2023-01-19T10:37:50;91301.44;;;15.19;40.12
64602;BME280;51013;42.630;23.192;2023-01-19T10:40:26;91314.84;;;14.94;40.08
64602;BME280;51013;42.630;23.192;2023-01-19T10:42:56;91309.94;;;14.96;39.70
64602;BME280;51013;42.630;23.192;2023-01-19T10:45:25;91298.28;;;14.83;40.58
64602;BME280;51013;42.630;23.192;2023-01-19T10:47:56;91297.44;;;15.00;41.43
64602;BME280;51013;42.630;23.192;2023-01-19T10:50:26;91297.75;;;15.06;40.86
64602;BME280;51013;42.630;23.192;2023-01-19T10:52:54;91305.38;;;15.00;39.92
64602;BME280;51013;42.630;23.192;2023-01-19T10:55:27;91319.00;;;14.95;40.16
64602;BME280;51013;42.630;23.192;2023-01-19T10:57:55;91342.25;;;14.52;41.47
64602;BME280;51013;42.630;23.192;2023-01-19T11:00:33;91326.13;;;14.25;41.43
64602;BME280;51013;42.630;23.192;2023-01-19T11:03:03;91317.44;;;14.20;42.70
64602;BME280;51013;42.630;23.192;2023-01-19T11:05:32;91292.59;;;14.11;41.64
64602;BME280;51013;42.630;23.192;2023-01-19T11:07:59;91313.69;;;14.14;42.27
64602;BME280;51013;42.630;23.192;2023-01-19T11:10:27;91291.09;;;14.13;42.58
64602;BME280;51013;42.630;23.192;2023-01-19T11:12:57;91301.22;;;14.26;43.05
64602;BME280;51013;42.630;23.192;2023-01-19T11:15:29;91301.47;;;14.60;41.72
64602;BME280;51013;42.630;23.192;2023-01-19T11:17:57;91277.53;;;14.78;41.37
64602;BME280;51013;42.630;23.192;2023-01-19T11:20:28;91287.63;;;14.97;41.28
64602;BME280;51013;42.630;23.192;2023-01-19T11:23:05;91272.06;;;15.07;40.87
64602;BME280;51013;42.630;23.192;2023-01-19T11:25:33;91277.06;;;14.94;40.77
64602;BME280;51013;42.630;23.192;2023-01-19T11:28:04;91284.56;;;15.02;40.03
64602;BME280;51013;42.630;23.192;2023-01-19T11:30:33;91284.63;;;14.95;39.54
64602;BME280;51013;42.630;23.192;2023-01-19T11:33:00;91289.50;;;15.00;39.75
64602;BME280;51013;42.630;23.192;2023-01-19T11:35:36;91275.03;;;15.12;39.36
64602;BME280;51013;42.630;23.192;2023-01-19T11:38:15;91242.31;;;14.95;39.47
64602;BME280;51013;42.630;23.192;2023-01-19T11:40:50;91266.25;;;15.22;39.65
64602;BME280;51013;42.630;23.192;2023-01-19T11:43:20;91249.41;;;15.06;39.45
64602;BME280;51013;42.630;23.192;2023-01-19T11:45:47;91257.06;;;14.93;40.01
64602;BME280;51013;42.630;23.192;2023-01-19T11:48:21;91253.56;;;15.07;39.62
64602;BME280;51013;42.630;23.192;2023-01-19T11:50:50;91237.50;;;14.83;39.35
64602;BME280;51013;42.630;23.192;2023-01-19T11:53:20;91269.22;;;14.83;39.39
64602;BME280;51013;42.630;23.192;2023-01-19T11:55:53;91241.44;;;14.57;39.01
64602;BME280;51013;42.630;23.192;2023-01-19T11:58:22;91251.91;;;14.75;39.26
64602;BME280;51013;42.630;23.192;2023-01-19T12:00:52;91263.94;;;14.83;40.09
64602;BME280;51013;42.630;23.192;2023-01-19T12:03:23;91242.50;;;14.70;39.84
64602;BME280;51013;42.630;23.192;2023-01-19T12:05:57;91241.72;;;14.70;39.88
64602;BME280;51013;42.630;23.192;2023-01-19T12:08:28;91248.16;;;14.69;39.90
64602;BME280;51013;42.630;23.192;2023-01-19T12:10:58;91251.25;;;14.53;39.78
64602;BME280;51013;42.630;23.192;2023-01-19T12:13:26;91215.97;;;14.21;40.10
64602;BME280;51013;42.630;23.192;2023-01-19T12:15:56;91213.66;;;14.27;40.57
64602;BME280;51013;42.630;23.192;2023-01-19T12:18:28;91241.16;;;14.37;39.85
64602;BME280;51013;42.630;23.192;2023-01-19T12:20:57;91238.59;;;14.22;39.50
64602;BME280;51013;42.630;23.192;2023-01-19T12:23:31;91233.66;;;14.25;40.22
64602;BME280;51013;42.630;23.192;2023-01-19T12:26:15;91234.44;;;14.21;41.33
64602;BME280;51013;42.630;23.192;2023-01-19T12:28:47;91230.22;;;14.35;40.01
64602;BME280;51013;42.630;23.192;2023-01-19T12:31:17;91257.34;;;14.42;39.56
64602;BME280;51013;42.630;23.192;2023-01-19T12:33:48;91243.72;;;14.51;39.49
64602;BME280;51013;42.630;23.192;2023-01-19T12:36:37;91242.88;;;14.72;40.53
64602;BME280;51013;42.630;23.192;2023-01-19T12:39:13;91234.59;;;14.63;40.04
64602;BME280;51013;42.630;23.192;2023-01-19T12:41:43;91251.63;;;14.62;40.51
64602;BME280;51013;42.630;23.192;2023-01-19T12:44:29;91224.41;;;14.65;39.58
64602;BME280;51013;42.630;23.192;2023-01-19T12:46:59;91267.84;;;14.60;40.53
64602;BME280;51013;42.630;23.192;2023-01-19T12:49:33;91243.41;;;14.42;41.08
64602;BME280;51013;42.630;23.192;2023-01-19T12:52:34;91243.41;;;14.38;42.10
64602;BME280;51013;42.630;23.192;2023-01-19T12:55:16;91244.22;;;14.28;42.00
64602;BME280;51013;42.630;23.192;2023-01-19T12:57:52;91243.44;;;14.31;41.96
64602;BME280;51013;42.630;23.192;2023-01-19T13:00:30;91240.84;;;14.28;40.89
64602;BME280;51013;42.630;23.192;2023-01-19T13:02:58;91263.47;;;14.25;40.82